createdAt,value
2019-02-18T00:00:43.724Z,159.23
2019-02-18T00:04:07.365Z,156.53
2019-02-18T00:07:30.983Z,157.97
2019-02-18T00:10:54.509Z,161.20
2019-02-18T00:14:18.102Z,162.53
2019-02-18T00:17:41.798Z,145.33
2019-02-18T00:21:05.337Z,162.50
2019-02-18T00:24:29.103Z,179.17
2019-02-18T00:27:52.606Z,181.30
2019-02-18T00:31:16.299Z,227.00
2019-02-18T00:34:39.749Z,177.30
2019-02-18T00:38:03.443Z,185.10
2019-02-18T00:41:26.854Z,174.13
2019-02-18T00:44:50.371Z,157.07
2019-02-18T00:48:14.045Z,185.87
2019-02-18T00:51:37.906Z,174.30
2019-02-18T00:55:01.617Z,162.37
2019-02-18T00:58:25.051Z,177.33
2019-02-18T01:01:48.728Z,221.83
2019-02-18T01:05:12.289Z,176.87
2019-02-18T01:08:35.907Z,193.60
2019-02-18T01:11:59.451Z,199.73
2019-02-18T01:15:23.112Z,206.03
2019-02-18T01:18:46.541Z,218.57
2019-02-18T01:22:10.201Z,209.60
2019-02-18T01:25:33.713Z,187.83
2019-02-18T01:28:57.226Z,220.93
2019-02-18T01:32:20.766Z,216.73
2019-02-18T01:35:44.451Z,230.37
2019-02-18T01:39:07.902Z,218.00
2019-02-18T01:42:31.438Z,267.97
2019-02-18T01:45:54.897Z,277.30
2019-02-18T01:49:18.521Z,195.10
2019-02-18T01:52:42.173Z,235.03
2019-02-18T01:56:05.631Z,268.57
2019-02-18T01:59:29.209Z,327.10
2019-02-18T02:02:52.770Z,294.23
2019-02-18T02:06:16.343Z,286.13
2019-02-18T02:09:40.023Z,297.50
2019-02-18T02:13:28.661Z,269.57
2019-02-18T02:16:52.415Z,246.93
2019-02-18T02:20:15.995Z,294.27
2019-02-18T02:23:39.713Z,287.93
2019-02-18T02:27:03.276Z,248.27
2019-02-18T02:30:27.120Z,235.20
2019-02-18T02:33:50.823Z,344.80
2019-02-18T02:37:14.407Z,430.40
2019-02-18T02:40:37.954Z,302.83
2019-02-18T02:44:01.769Z,265.03
2019-02-18T02:47:27.078Z,317.70
2019-02-18T02:50:50.726Z,291.27
2019-02-18T02:54:14.167Z,272.33
2019-02-18T02:57:37.765Z,282.27
2019-02-18T03:01:01.406Z,267.57
2019-02-18T03:04:24.945Z,253.90
2019-02-18T03:07:48.693Z,243.23
2019-02-18T03:11:12.283Z,257.00
2019-02-18T03:14:35.705Z,290.33
2019-02-18T03:17:59.225Z,271.67
2019-02-18T03:21:22.886Z,276.97
2019-02-18T03:25:21.489Z,355.37
2019-02-18T03:28:50.852Z,362.77
2019-02-18T03:32:14.367Z,275.43
2019-02-18T03:35:37.863Z,274.17
2019-02-18T03:39:01.330Z,307.57
2019-02-18T03:42:25.003Z,301.57
2019-02-18T03:45:48.456Z,324.30
2019-02-18T03:49:11.962Z,276.47
2019-02-18T03:52:35.438Z,279.47
2019-02-18T03:55:58.969Z,275.80
2019-02-18T03:59:22.574Z,303.57
2019-02-18T04:02:46.199Z,275.97
2019-02-18T04:06:09.719Z,288.40
2019-02-18T04:09:33.736Z,267.80
2019-02-18T04:12:57.585Z,248.67
2019-02-18T04:16:21.070Z,245.33
2019-02-18T04:19:44.699Z,281.87
2019-02-18T04:23:08.916Z,302.67
2019-02-18T04:26:32.381Z,294.83
2019-02-18T04:29:55.967Z,307.43
2019-02-18T04:33:19.454Z,324.83
2019-02-18T04:36:42.935Z,302.97
2019-02-18T04:40:08.506Z,279.23
2019-02-18T04:43:32.071Z,264.93
2019-02-18T04:46:55.771Z,273.40
2019-02-18T04:50:19.356Z,266.20
2019-02-18T04:53:42.895Z,270.43
2019-02-18T04:57:06.440Z,303.83
2019-02-18T05:00:29.961Z,283.67
2019-02-18T05:03:53.498Z,297.23
2019-02-18T05:07:17.079Z,389.60
2019-02-18T05:10:40.759Z,569.57
2019-02-18T05:14:04.353Z,760.23
2019-02-18T05:17:27.901Z,1290.23
2019-02-18T05:20:51.403Z,1102.37
2019-02-18T05:24:14.898Z,1695.30
2019-02-18T05:27:38.496Z,1028.77
2019-02-18T05:31:02.028Z,1027.73
2019-02-18T05:34:25.592Z,1244.50
2019-02-18T05:37:49.086Z,1140.17
2019-02-18T05:41:12.749Z,1284.60
2019-02-18T05:44:36.275Z,1138.67
2019-02-18T05:47:59.865Z,1562.27
2019-02-18T05:51:23.520Z,1244.60
2019-02-18T05:54:47.129Z,1877.63
2019-02-18T05:58:10.869Z,1223.17
2019-02-18T06:01:34.619Z,1198.07
2019-02-18T06:04:58.164Z,1025.57
2019-02-18T06:08:21.604Z,1042.60
2019-02-18T06:11:45.087Z,893.60
2019-02-18T06:15:09.859Z,1508.10
2019-02-18T06:18:33.561Z,817.90
2019-02-18T06:21:57.066Z,1072.30
2019-02-18T06:25:20.667Z,1372.83
2019-02-18T06:28:44.201Z,1557.67
2019-02-18T06:32:07.964Z,1214.63
2019-02-18T06:35:31.447Z,1445.83
2019-02-18T06:38:57.516Z,1955.93
2019-02-18T06:42:20.051Z,1131.57
2019-02-18T06:45:47.906Z,1478.17
2019-02-18T06:49:15.804Z,1214.57
2019-02-18T06:52:39.525Z,1186.73
2019-02-18T06:56:03.098Z,952.20
2019-02-18T06:59:28.359Z,1176.77
2019-02-18T07:02:53.655Z,1999.90
2019-02-18T07:06:18.903Z,1999.90
2019-02-18T07:09:53.238Z,1836.13
2019-02-18T07:13:17.043Z,1635.67
2019-02-18T07:16:40.585Z,1999.90
2019-02-18T07:20:06.208Z,1393.33
2019-02-18T07:23:29.703Z,579.33
2019-02-18T07:26:53.887Z,1072.13
2019-02-18T07:30:17.564Z,522.57
2019-02-18T07:33:41.146Z,1573.67
2019-02-18T07:37:04.664Z,1562.67
2019-02-18T07:40:28.202Z,499.37
2019-02-18T07:43:51.882Z,555.13
2019-02-18T07:47:15.443Z,386.83
2019-02-18T07:50:39.327Z,1999.90
2019-02-18T07:54:03.006Z,1035.87
2019-02-18T07:57:26.771Z,1507.77
2019-02-18T08:00:50.279Z,1448.50
2019-02-18T08:04:13.753Z,578.10
2019-02-18T08:07:37.283Z,285.03
2019-02-18T08:11:00.957Z,357.67
2019-02-18T08:14:24.766Z,138.97
2019-02-18T08:17:48.344Z,214.40
2019-02-18T08:21:11.939Z,114.70
2019-02-18T08:24:35.578Z,104.87
2019-02-18T08:27:59.132Z,95.70
2019-02-18T08:31:22.882Z,94.97
2019-02-18T08:34:46.491Z,99.03
2019-02-18T08:38:10.150Z,89.10
2019-02-18T08:41:33.826Z,90.93
2019-02-18T08:44:57.554Z,102.30
2019-02-18T08:48:21.296Z,96.67
2019-02-18T08:51:45.855Z,101.30
2019-02-18T08:55:11.974Z,92.13
2019-02-18T08:58:35.605Z,96.13
2019-02-18T09:01:59.185Z,101.87
2019-02-18T09:05:22.865Z,93.20
2019-02-18T09:08:46.473Z,101.57
2019-02-18T09:12:10.008Z,98.30
2019-02-18T09:15:33.489Z,103.27
2019-02-18T09:18:57.004Z,103.60
2019-02-18T09:22:28.386Z,109.33
2019-02-18T09:25:52.906Z,112.03
2019-02-18T09:29:16.497Z,122.60
2019-02-18T09:32:40.163Z,122.43
2019-02-18T09:36:03.911Z,125.60
2019-02-18T09:39:31.069Z,115.53
2019-02-18T09:42:52.685Z,109.07
2019-02-18T09:46:16.373Z,109.70
2019-02-18T09:49:39.981Z,104.03
2019-02-18T09:53:03.424Z,107.03
2019-02-18T09:56:26.971Z,101.97
2019-02-18T09:59:50.578Z,103.83
2019-02-18T10:03:14.055Z,95.00
2019-02-18T10:06:37.658Z,96.13
2019-02-18T10:10:01.306Z,96.77
2019-02-18T10:13:28.037Z,102.60
2019-02-18T10:16:51.513Z,93.13
2019-02-18T10:20:15.181Z,87.73
2019-02-18T10:23:39.212Z,88.57
2019-02-18T10:27:03.350Z,94.80
2019-02-18T10:30:27.034Z,92.73
2019-02-18T10:33:50.511Z,86.67
2019-02-18T10:37:14.119Z,89.07
2019-02-18T10:40:37.764Z,78.07
2019-02-18T10:44:01.237Z,76.27
2019-02-18T10:47:24.908Z,74.50
2019-02-18T10:50:48.479Z,73.27
2019-02-18T10:54:11.995Z,77.87
2019-02-18T10:57:35.625Z,81.17
2019-02-18T11:00:59.404Z,74.30
2019-02-18T11:04:23.096Z,74.63
2019-02-18T11:07:46.892Z,70.40
2019-02-18T11:11:16.966Z,70.53
2019-02-18T11:14:36.709Z,63.97
2019-02-18T11:18:00.236Z,65.60
2019-02-18T11:21:23.819Z,64.47
2019-02-18T11:24:47.422Z,73.53
2019-02-18T11:28:11.103Z,73.47
2019-02-18T11:31:34.639Z,74.83
2019-02-18T11:35:00.511Z,76.60
2019-02-18T11:38:23.663Z,74.60
2019-02-18T11:41:47.343Z,71.53
2019-02-18T11:45:13.051Z,87.70
2019-02-18T11:48:36.611Z,76.73
2019-02-18T11:52:00.414Z,79.40
2019-02-18T11:55:26.144Z,81.60
2019-02-18T11:58:49.695Z,77.83
2019-02-18T12:02:13.281Z,87.07
2019-02-18T12:05:36.796Z,83.20
2019-02-18T12:09:00.694Z,78.27
2019-02-18T12:12:24.614Z,71.93
2019-02-18T12:15:48.300Z,66.60
2019-02-18T12:19:11.971Z,61.47
2019-02-18T12:22:35.484Z,60.80
2019-02-18T12:25:59.243Z,62.73
2019-02-18T12:29:26.566Z,65.50
2019-02-18T12:32:48.221Z,66.83
2019-02-18T12:36:12.254Z,54.63
2019-02-18T12:39:35.871Z,59.40
2019-02-18T12:42:59.459Z,52.40
2019-02-18T12:46:23.184Z,61.70
2019-02-18T12:49:46.654Z,59.93
2019-02-18T12:53:10.350Z,57.57
2019-02-18T12:56:33.924Z,50.57
2019-02-18T12:59:57.497Z,54.63
2019-02-18T13:03:21.265Z,58.43
2019-02-18T13:06:45.209Z,52.33
2019-02-18T13:10:10.586Z,50.60
2019-02-18T13:13:34.479Z,52.60
2019-02-18T13:16:58.053Z,53.17
2019-02-18T13:20:21.619Z,55.33
2019-02-18T13:23:46.841Z,52.70
2019-02-18T13:27:11.027Z,54.87
2019-02-18T13:30:34.688Z,54.03
2019-02-18T13:33:58.167Z,57.80
2019-02-18T13:37:21.754Z,51.13
2019-02-18T13:40:45.284Z,52.17
2019-02-18T13:44:08.904Z,48.10
2019-02-18T13:47:32.443Z,55.30
2019-02-18T13:50:56.046Z,52.03
2019-02-18T13:54:19.787Z,48.10
2019-02-18T13:57:43.811Z,55.50
2019-02-18T14:01:07.420Z,52.80
2019-02-18T14:04:31.218Z,47.20
2019-02-18T14:07:54.805Z,48.23
2019-02-18T14:11:18.675Z,53.87
2019-02-18T14:14:42.579Z,52.73
2019-02-18T14:18:06.688Z,55.50
2019-02-18T14:21:30.348Z,50.83
2019-02-18T14:24:53.858Z,57.27
2019-02-18T14:28:17.785Z,58.07
2019-02-18T14:31:41.564Z,54.93
2019-02-18T14:35:06.384Z,61.53
2019-02-18T14:38:30.223Z,66.33
2019-02-18T14:41:53.828Z,60.73
2019-02-18T14:45:21.542Z,67.07
2019-02-18T14:48:45.181Z,59.77
2019-02-18T14:52:08.653Z,71.10
2019-02-18T14:55:32.284Z,63.83
2019-02-18T14:59:00.122Z,67.13
2019-02-18T15:02:28.280Z,62.57
2019-02-18T15:05:52.047Z,67.03
2019-02-18T15:09:15.657Z,66.50
2019-02-18T15:12:40.143Z,71.57
2019-02-18T15:16:03.777Z,65.50
2019-02-18T15:19:28.069Z,71.97
2019-02-18T15:22:52.071Z,72.17
2019-02-18T15:26:18.414Z,65.73
2019-02-18T15:29:45.694Z,76.47
2019-02-18T15:33:11.105Z,72.60
2019-02-18T15:36:34.740Z,74.03
2019-02-18T15:39:59.287Z,70.33
2019-02-18T15:43:23.067Z,73.00
2019-02-18T15:46:47.142Z,75.67
2019-02-18T15:50:16.849Z,71.23
2019-02-18T15:53:40.499Z,108.00
2019-02-18T15:57:04.491Z,124.43
2019-02-18T16:00:28.576Z,594.13
2019-02-18T16:03:52.508Z,281.40
2019-02-18T16:07:16.210Z,617.53
2019-02-18T16:10:40.055Z,295.00
2019-02-18T16:14:03.938Z,456.00
2019-02-18T16:17:27.911Z,383.77
2019-02-18T16:20:51.547Z,177.47
2019-02-18T16:24:20.007Z,183.10
2019-02-18T16:27:40.998Z,202.10
2019-02-18T16:31:04.651Z,224.20
2019-02-18T16:34:28.195Z,227.33
2019-02-18T16:37:51.960Z,329.97
2019-02-18T16:41:15.974Z,218.97
2019-02-18T16:44:39.681Z,158.90
2019-02-18T16:48:04.446Z,194.33
2019-02-18T16:51:29.099Z,158.23
2019-02-18T16:54:52.994Z,137.50
2019-02-18T16:58:17.064Z,183.33
2019-02-18T17:01:40.802Z,122.17
2019-02-18T17:05:05.386Z,247.40
2019-02-18T17:08:29.218Z,227.43
2019-02-18T17:11:53.387Z,191.83
2019-02-18T17:15:17.276Z,220.03
2019-02-18T17:18:43.979Z,176.73
2019-02-18T17:22:11.272Z,218.90
2019-02-18T17:25:35.282Z,197.10
2019-02-18T17:28:59.469Z,230.93
2019-02-18T17:32:23.895Z,226.80
2019-02-18T17:35:47.810Z,127.27
2019-02-18T17:39:12.447Z,218.13
2019-02-18T17:42:36.091Z,223.63
2019-02-18T17:46:00.281Z,166.83
2019-02-18T17:49:24.499Z,108.37
2019-02-18T17:52:49.304Z,196.87
2019-02-18T17:56:13.946Z,205.10
2019-02-18T17:59:38.778Z,195.30
2019-02-18T18:03:02.415Z,242.43
2019-02-18T18:06:26.309Z,238.47
2019-02-18T18:09:50.307Z,214.57
2019-02-18T18:13:13.963Z,281.37
2019-02-18T18:16:37.755Z,217.93
2019-02-18T18:20:04.452Z,241.60
2019-02-18T18:23:28.165Z,249.27
2019-02-18T18:26:52.275Z,244.23
2019-02-18T18:30:19.807Z,238.30
2019-02-18T18:33:43.536Z,233.57
2019-02-18T18:37:07.079Z,241.83
2019-02-18T18:40:30.746Z,241.60
2019-02-18T18:43:54.438Z,259.50
2019-02-18T18:47:18.186Z,241.23
2019-02-18T18:50:43.435Z,241.93
2019-02-18T18:54:07.043Z,268.67
2019-02-18T18:57:30.948Z,251.53
2019-02-18T19:00:54.728Z,254.80
2019-02-18T19:04:18.540Z,252.30
2019-02-18T19:07:42.080Z,282.67
2019-02-18T19:11:05.963Z,267.00
2019-02-18T19:14:29.698Z,312.80
2019-02-18T19:17:53.551Z,279.37
2019-02-18T19:21:17.372Z,279.30
2019-02-18T19:24:41.031Z,285.73
2019-02-18T19:28:04.669Z,292.13
2019-02-18T19:31:28.855Z,290.10
2019-02-18T19:34:52.770Z,344.40
2019-02-18T19:38:16.938Z,310.47
2019-02-18T19:41:40.711Z,274.70
2019-02-18T19:45:10.879Z,344.60
2019-02-18T19:48:34.859Z,285.43
2019-02-18T19:51:58.492Z,324.40
2019-02-18T19:55:22.784Z,353.77
2019-02-18T19:58:46.296Z,366.50
2019-02-18T20:02:09.935Z,368.33
2019-02-18T20:05:33.694Z,332.80
2019-02-18T20:08:57.294Z,344.30
2019-02-18T20:12:20.829Z,324.10
2019-02-18T20:15:44.524Z,346.57
2019-02-18T20:19:08.041Z,369.20
2019-02-18T20:22:31.912Z,312.53
2019-02-18T20:25:55.546Z,306.03
2019-02-18T20:29:19.319Z,306.33
2019-02-18T20:32:42.826Z,304.53
2019-02-18T20:36:06.606Z,308.90
2019-02-18T20:39:30.277Z,369.07
2019-02-18T20:42:54.488Z,312.83
2019-02-18T20:46:18.242Z,279.07
2019-02-18T20:49:41.878Z,283.97
2019-02-18T20:53:05.605Z,304.83
2019-02-18T20:56:29.454Z,301.33
2019-02-18T20:59:53.015Z,302.60
2019-02-18T21:03:16.622Z,303.97
2019-02-18T21:06:40.402Z,294.03
2019-02-18T21:10:05.063Z,283.80
2019-02-18T21:13:28.961Z,288.23
2019-02-18T21:16:52.497Z,247.90
2019-02-18T21:20:17.142Z,263.27
2019-02-18T21:23:41.084Z,325.57
2019-02-18T21:27:04.787Z,289.57
2019-02-18T21:30:28.602Z,314.67
2019-02-18T21:33:52.154Z,285.97
2019-02-18T21:37:15.640Z,278.27
2019-02-18T21:40:39.260Z,271.07
2019-02-18T21:44:03.031Z,300.03
2019-02-18T21:47:26.668Z,274.83
2019-02-18T21:50:50.125Z,282.10
2019-02-18T21:54:13.635Z,280.10
2019-02-18T21:57:37.279Z,299.07
2019-02-18T22:01:00.964Z,264.50
2019-02-18T22:04:24.521Z,264.97
2019-02-18T22:07:48.021Z,256.77
2019-02-18T22:11:12.904Z,242.60
2019-02-18T22:14:37.071Z,252.20
2019-02-18T22:18:00.564Z,262.03
2019-02-18T22:21:25.129Z,254.23
2019-02-18T22:24:48.639Z,273.13
2019-02-18T22:28:12.371Z,270.50
2019-02-18T22:31:36.490Z,284.20
2019-02-18T22:35:00.680Z,260.63
2019-02-18T22:38:24.323Z,262.53
2019-02-18T22:41:47.797Z,272.83
2019-02-18T22:45:11.895Z,245.10
2019-02-18T22:48:35.592Z,249.20
2019-02-18T22:51:59.376Z,253.70
2019-02-18T22:55:22.951Z,278.30
2019-02-18T22:58:46.584Z,282.97
2019-02-18T23:02:10.303Z,273.97
2019-02-18T23:05:33.861Z,284.53
2019-02-18T23:08:57.730Z,294.27
2019-02-18T23:12:21.690Z,296.63
2019-02-18T23:15:45.374Z,293.90
2019-02-18T23:19:10.173Z,284.70
2019-02-18T23:22:33.863Z,293.53
2019-02-18T23:25:57.465Z,321.63
2019-02-18T23:29:21.018Z,326.53
2019-02-18T23:32:44.559Z,325.10
2019-02-18T23:36:08.505Z,301.93
2019-02-18T23:39:32.123Z,346.07
2019-02-18T23:42:55.946Z,336.83
2019-02-18T23:46:19.331Z,328.47
2019-02-18T23:49:43.035Z,334.10
2019-02-18T23:53:06.882Z,338.17
2019-02-18T23:56:30.543Z,309.53
2019-02-18T23:59:54.115Z,317.73
